createdAt,value
2023-04-26T00:02:19.826Z,8.50
2023-04-26T00:04:47.768Z,8.50
2023-04-26T00:07:16.131Z,8.50
2023-04-26T00:09:44.771Z,8.50
2023-04-26T00:12:12.174Z,8.40
2023-04-26T00:14:39.649Z,8.40
2023-04-26T00:17:06.790Z,8.40
2023-04-26T00:19:33.807Z,8.30
2023-04-26T00:22:00.898Z,8.30
2023-04-26T00:24:28.301Z,8.30
2023-04-26T00:26:55.974Z,8.30
2023-04-26T00:31:58.704Z,8.20
2023-04-26T00:34:25.808Z,8.30
2023-04-26T00:36:53.325Z,8.30
2023-04-26T00:39:20.257Z,8.30
2023-04-26T00:41:48.809Z,8.30
2023-04-26T00:44:15.843Z,8.30
2023-04-26T00:46:42.995Z,8.30
2023-04-26T00:49:16.928Z,8.30
2023-04-26T00:51:45.257Z,8.30
2023-04-26T00:54:13.884Z,8.30
2023-04-26T00:56:42.141Z,8.40
2023-04-26T00:59:09.081Z,8.40
2023-04-26T01:01:36.579Z,8.40
2023-04-26T01:04:04.088Z,8.40
2023-04-26T01:06:34.828Z,8.40
2023-04-26T01:09:08.498Z,8.40
2023-04-26T01:11:39.069Z,8.40
2023-04-26T01:14:06.944Z,8.40
2023-04-26T01:16:35.320Z,8.30
2023-04-26T01:19:11.110Z,8.40
2023-04-26T01:21:38.179Z,8.40
2023-04-26T01:24:06.106Z,8.30
2023-04-26T01:26:33.153Z,8.30
2023-04-26T01:29:00.109Z,8.40
2023-04-26T01:31:27.235Z,8.40
2023-04-26T01:33:54.188Z,8.30
2023-04-26T01:36:21.172Z,8.30
2023-04-26T01:38:48.118Z,8.30
2023-04-26T01:41:15.738Z,8.30
2023-04-26T01:43:42.660Z,8.30
2023-04-26T01:46:09.640Z,8.30
2023-04-26T01:48:36.781Z,8.30
2023-04-26T01:51:03.709Z,8.30
2023-04-26T01:53:30.660Z,8.30
2023-04-26T01:56:00.644Z,8.30
2023-04-26T01:58:27.573Z,8.30
2023-04-26T02:00:54.509Z,8.30
2023-04-26T02:03:21.624Z,8.40
2023-04-26T02:05:48.620Z,8.30
2023-04-26T02:08:15.644Z,8.40
2023-04-26T02:10:42.595Z,8.40
2023-04-26T02:13:09.732Z,8.40
2023-04-26T02:15:37.341Z,8.40
2023-04-26T02:18:04.369Z,8.40
2023-04-26T02:20:31.534Z,8.40
2023-04-26T02:22:58.530Z,8.40
2023-04-26T02:25:25.585Z,8.40
2023-04-26T02:27:52.517Z,8.30
2023-04-26T02:30:19.489Z,8.30
2023-04-26T02:32:46.458Z,8.30
2023-04-26T02:35:13.501Z,8.30
2023-04-26T02:37:40.832Z,8.40
2023-04-26T02:40:10.985Z,8.30
2023-04-26T02:42:37.982Z,8.30
2023-04-26T02:45:05.459Z,8.30
2023-04-26T02:47:32.423Z,8.30
2023-04-26T02:49:59.570Z,8.20
2023-04-26T02:52:26.912Z,8.10
2023-04-26T02:54:53.908Z,8.10
2023-04-26T02:57:20.909Z,8.10
2023-04-26T02:59:47.841Z,8.10
2023-04-26T03:02:14.877Z,8.00
2023-04-26T03:04:42.030Z,8.00
2023-04-26T03:07:08.942Z,8.00
2023-04-26T03:09:38.358Z,8.00
2023-04-26T03:12:07.625Z,7.90
2023-04-26T03:14:35.004Z,7.90
2023-04-26T03:17:02.327Z,7.90
2023-04-26T03:19:29.518Z,7.90
2023-04-26T03:21:56.868Z,7.90
2023-04-26T03:24:23.960Z,8.00
2023-04-26T03:26:51.056Z,8.00
2023-04-26T03:29:18.131Z,8.00
2023-04-26T03:31:45.119Z,8.00
2023-04-26T03:34:12.098Z,8.10
2023-04-26T03:36:39.068Z,8.10
2023-04-26T03:39:06.445Z,8.10
2023-04-26T03:41:35.724Z,8.10
2023-04-26T03:44:02.882Z,8.20
2023-04-26T03:46:29.886Z,8.20
2023-04-26T03:48:56.864Z,8.20
2023-04-26T03:51:34.495Z,8.20
2023-04-26T03:54:01.511Z,8.20
2023-04-26T03:56:28.489Z,8.20
2023-04-26T03:58:55.460Z,8.30
2023-04-26T04:01:22.449Z,8.40
2023-04-26T04:03:49.645Z,8.40
2023-04-26T04:06:16.922Z,8.40
2023-04-26T04:08:43.868Z,8.40
2023-04-26T04:11:10.908Z,8.40
2023-04-26T04:13:37.864Z,8.40
2023-04-26T04:16:05.261Z,8.50
2023-04-26T04:18:32.326Z,8.50
2023-04-26T04:20:59.360Z,8.60
2023-04-26T04:23:27.565Z,8.60
2023-04-26T04:25:54.505Z,8.70
2023-04-26T04:28:23.074Z,8.80
2023-04-26T04:30:50.122Z,8.80
2023-04-26T04:33:17.993Z,8.80
2023-04-26T04:35:45.252Z,8.90
2023-04-26T04:38:12.245Z,8.90
2023-04-26T04:40:39.155Z,8.80
2023-04-26T04:43:06.389Z,8.80
2023-04-26T04:45:33.319Z,8.80
2023-04-26T04:48:00.340Z,8.80
2023-04-26T04:50:28.245Z,8.80
2023-04-26T04:52:55.261Z,8.90
2023-04-26T04:55:22.272Z,8.90
2023-04-26T04:57:49.218Z,9.00
2023-04-26T05:00:16.810Z,9.00
2023-04-26T05:02:44.028Z,9.00
2023-04-26T05:05:11.370Z,9.00
2023-04-26T05:07:38.402Z,8.90
2023-04-26T05:10:05.826Z,8.90
2023-04-26T05:12:33.561Z,8.80
2023-04-26T05:15:00.493Z,8.80
2023-04-26T05:17:27.449Z,8.80
2023-04-26T05:19:54.402Z,8.80
2023-04-26T05:22:22.427Z,8.80
2023-04-26T05:24:49.363Z,8.90
2023-04-26T05:27:16.419Z,8.80
2023-04-26T05:29:43.524Z,8.70
2023-04-26T05:32:10.734Z,8.60
2023-04-26T05:34:38.793Z,8.60
2023-04-26T05:37:05.773Z,8.60
2023-04-26T05:39:32.723Z,8.60
2023-04-26T05:41:59.667Z,8.50
2023-04-26T05:44:26.655Z,8.60
2023-04-26T05:46:53.561Z,8.60
2023-04-26T05:49:20.589Z,8.60
2023-04-26T05:51:47.567Z,8.60
2023-04-26T05:54:14.533Z,8.60
2023-04-26T05:56:41.452Z,8.60
2023-04-26T05:59:09.236Z,8.60
2023-04-26T06:01:36.143Z,8.60
2023-04-26T06:04:03.746Z,8.50
2023-04-26T06:06:32.161Z,8.60
2023-04-26T06:08:59.101Z,8.60
2023-04-26T06:11:26.960Z,8.70
2023-04-26T06:13:54.414Z,8.80
2023-04-26T06:16:23.383Z,8.80
2023-04-26T06:18:50.455Z,8.90
2023-04-26T06:21:17.471Z,9.00
2023-04-26T06:23:44.447Z,9.10
2023-04-26T06:26:11.330Z,9.10
2023-04-26T06:28:39.529Z,9.10
2023-04-26T06:31:08.086Z,9.10
2023-04-26T06:33:35.145Z,9.20
2023-04-26T06:36:02.277Z,9.20
2023-04-26T06:38:29.451Z,9.20
2023-04-26T06:40:56.701Z,9.20
2023-04-26T06:43:23.656Z,9.20
2023-04-26T06:45:50.759Z,9.20
2023-04-26T06:48:17.773Z,9.10
2023-04-26T06:50:44.800Z,9.10
2023-04-26T06:53:11.871Z,9.10
2023-04-26T06:55:38.909Z,9.20
2023-04-26T06:58:06.134Z,9.20
2023-04-26T07:00:33.361Z,9.20
2023-04-26T07:03:00.473Z,9.20
2023-04-26T07:05:27.636Z,9.20
2023-04-26T07:07:54.575Z,9.20
2023-04-26T07:10:21.659Z,9.20
2023-04-26T07:12:48.651Z,9.20
2023-04-26T07:15:15.781Z,9.20
2023-04-26T07:17:42.711Z,9.20
2023-04-26T07:20:10.403Z,9.20
2023-04-26T07:22:37.354Z,9.20
2023-04-26T07:25:05.425Z,9.20
2023-04-26T07:27:32.460Z,9.20
2023-04-26T07:29:59.617Z,9.40
2023-04-26T07:32:26.668Z,9.40
2023-04-26T07:34:53.741Z,9.50
2023-04-26T07:37:20.975Z,9.50
2023-04-26T07:39:47.927Z,9.50
2023-04-26T07:42:15.311Z,9.60
2023-04-26T07:44:42.258Z,9.70
2023-04-26T07:47:13.740Z,9.60
2023-04-26T07:49:41.320Z,9.70
2023-04-26T07:52:09.447Z,9.80
2023-04-26T07:54:37.027Z,9.90
2023-04-26T07:57:04.052Z,10.00
2023-04-26T07:59:31.358Z,10.10
2023-04-26T08:02:00.580Z,10.10
2023-04-26T08:04:34.007Z,10.30
2023-04-26T08:07:04.312Z,10.60
2023-04-26T08:09:31.561Z,10.70
2023-04-26T08:11:58.881Z,10.80
2023-04-26T08:14:25.978Z,10.80
2023-04-26T08:16:53.741Z,10.90
2023-04-26T08:19:20.804Z,11.00
2023-04-26T08:21:47.800Z,11.00
2023-04-26T08:24:14.841Z,11.10
2023-04-26T08:26:41.946Z,11.10
2023-04-26T08:29:09.076Z,11.10
2023-04-26T08:31:36.255Z,11.00
2023-04-26T08:34:03.304Z,10.90
2023-04-26T08:36:30.363Z,10.90
2023-04-26T08:38:58.167Z,10.80
2023-04-26T08:41:26.383Z,10.90
2023-04-26T08:43:56.207Z,10.90
2023-04-26T08:46:25.891Z,10.80
2023-04-26T08:49:07.925Z,10.80
2023-04-26T08:51:36.749Z,10.80
2023-04-26T08:54:07.496Z,11.00
2023-04-26T08:56:35.660Z,11.20
2023-04-26T08:59:03.219Z,11.60
2023-04-26T09:01:34.051Z,11.90
2023-04-26T09:04:01.728Z,11.90
2023-04-26T09:06:29.154Z,12.00
2023-04-26T09:08:57.478Z,11.90
2023-04-26T09:11:24.444Z,11.90
2023-04-26T09:13:51.775Z,12.00
2023-04-26T09:16:18.943Z,12.10
2023-04-26T09:18:57.447Z,12.00
2023-04-26T09:21:24.880Z,11.60
2023-04-26T09:24:04.735Z,11.30
2023-04-26T09:26:31.742Z,11.00
2023-04-26T09:29:16.117Z,10.90
2023-04-26T09:31:50.808Z,11.00
2023-04-26T09:34:17.826Z,10.90
2023-04-26T09:36:58.622Z,10.80
2023-04-26T09:39:40.315Z,10.80
2023-04-26T09:42:11.390Z,10.60
2023-04-26T09:44:38.798Z,10.50
2023-04-26T09:47:11.973Z,10.40
2023-04-26T09:49:51.590Z,10.30
2023-04-26T09:52:19.465Z,10.20
2023-04-26T09:54:59.371Z,10.30
2023-04-26T09:57:26.470Z,10.30
2023-04-26T10:00:01.788Z,10.40
2023-04-26T10:02:30.174Z,10.50
2023-04-26T10:05:00.192Z,10.60
2023-04-26T10:07:30.402Z,10.70
2023-04-26T10:09:58.501Z,10.60
2023-04-26T10:12:25.421Z,10.60
2023-04-26T10:14:52.579Z,10.50
2023-04-26T10:17:21.089Z,10.40
2023-04-26T10:19:52.530Z,10.30
2023-04-26T10:22:31.190Z,10.20
2023-04-26T10:24:58.231Z,10.10
2023-04-26T10:28:01.030Z,10.10
2023-04-26T10:30:27.946Z,10.10
2023-04-26T10:32:57.998Z,10.10
2023-04-26T10:35:30.707Z,10.10
2023-04-26T10:38:00.546Z,10.10
2023-04-26T10:40:28.502Z,10.10
2023-04-26T10:43:19.785Z,10.10
2023-04-26T10:45:47.968Z,10.30
2023-04-26T10:48:44.172Z,10.30
2023-04-26T10:51:12.696Z,10.30
2023-04-26T10:53:45.956Z,10.20
2023-04-26T10:56:33.899Z,10.30
2023-04-26T11:01:42.795Z,10.30
2023-04-26T11:04:11.752Z,10.30
2023-04-26T11:06:49.343Z,10.40
2023-04-26T11:09:37.501Z,10.40
2023-04-26T11:12:12.312Z,10.20
2023-04-26T11:14:41.823Z,10.10
2023-04-26T11:17:09.699Z,10.10
2023-04-26T11:19:37.008Z,10.00
2023-04-26T11:22:07.615Z,9.90
2023-04-26T11:24:41.744Z,9.90
2023-04-26T11:27:10.401Z,10.00
2023-04-26T11:29:37.828Z,10.00
2023-04-26T11:32:07.818Z,10.10
2023-04-26T11:34:36.545Z,10.10
2023-04-26T11:37:05.122Z,10.20
2023-04-26T11:39:38.940Z,10.20
2023-04-26T11:42:12.984Z,10.00
2023-04-26T11:44:41.534Z,10.00
2023-04-26T11:47:09.243Z,10.00
2023-04-26T11:49:37.687Z,10.00
2023-04-26T11:52:05.473Z,10.00
2023-04-26T11:54:35.056Z,10.00
2023-04-26T11:57:16.727Z,9.90
2023-04-26T11:59:44.540Z,9.80
2023-04-26T12:02:12.605Z,9.80
2023-04-26T12:04:41.415Z,9.80
2023-04-26T12:07:08.705Z,9.70
2023-04-26T12:09:40.492Z,9.80
2023-04-26T12:12:07.757Z,9.80
2023-04-26T12:14:39.366Z,9.70
2023-04-26T12:17:07.767Z,9.70
2023-04-26T12:19:38.973Z,9.60
2023-04-26T12:22:07.491Z,9.50
2023-04-26T12:24:37.100Z,9.40
2023-04-26T12:27:06.946Z,9.20
2023-04-26T12:29:34.833Z,9.10
2023-04-26T12:32:02.774Z,9.00
2023-04-26T12:34:30.008Z,8.90
2023-04-26T12:36:57.003Z,8.90
2023-04-26T12:39:23.915Z,8.90
2023-04-26T12:41:50.834Z,8.90
2023-04-26T12:44:19.644Z,8.80
2023-04-26T12:46:48.480Z,8.80
2023-04-26T12:49:15.740Z,8.80
2023-04-26T12:51:42.738Z,8.80
2023-04-26T12:54:09.676Z,8.70
2023-04-26T12:56:40.852Z,8.70
2023-04-26T12:59:07.807Z,8.70
2023-04-26T13:01:34.977Z,8.70
2023-04-26T13:04:04.785Z,8.70
2023-04-26T13:06:32.549Z,8.60
2023-04-26T13:08:59.697Z,8.60
2023-04-26T13:11:26.665Z,8.50
2023-04-26T13:13:53.604Z,8.50
2023-04-26T13:16:20.739Z,8.40
2023-04-26T13:18:47.687Z,8.40
2023-04-26T13:21:14.627Z,8.40
2023-04-26T13:23:41.570Z,8.50
2023-04-26T13:26:08.509Z,8.50
2023-04-26T13:28:37.007Z,8.60
2023-04-26T13:31:04.123Z,8.60
2023-04-26T13:33:31.185Z,8.60
2023-04-26T13:38:37.083Z,8.70
2023-04-26T13:41:03.995Z,8.70
2023-04-26T13:43:30.941Z,8.60
2023-04-26T13:45:57.980Z,8.60
2023-04-26T13:48:24.954Z,8.60
2023-04-26T13:50:51.989Z,8.60
2023-04-26T13:53:20.065Z,8.60
2023-04-26T13:55:47.000Z,8.50
2023-04-26T13:58:14.279Z,8.40
2023-04-26T14:00:41.995Z,8.40
2023-04-26T14:03:09.221Z,8.30
2023-04-26T14:05:36.298Z,8.30
2023-04-26T14:08:03.395Z,8.30
2023-04-26T14:10:30.340Z,8.40
2023-04-26T14:12:57.301Z,8.40
2023-04-26T14:15:24.270Z,8.40
2023-04-26T14:17:51.324Z,8.40
2023-04-26T14:20:18.367Z,8.30
2023-04-26T14:22:45.564Z,8.20
2023-04-26T14:25:12.486Z,8.20
2023-04-26T14:27:40.480Z,8.20
2023-04-26T14:30:08.152Z,8.20
2023-04-26T14:32:47.302Z,8.20
2023-04-26T14:35:14.265Z,8.10
2023-04-26T14:37:41.190Z,8.10
2023-04-26T14:40:08.977Z,8.10
2023-04-26T14:42:36.356Z,8.00
2023-04-26T14:45:03.515Z,8.00
2023-04-26T14:47:31.183Z,8.00
2023-04-26T14:49:58.206Z,8.00
2023-04-26T14:52:27.159Z,7.90
2023-04-26T14:54:54.094Z,7.90
2023-04-26T14:57:21.117Z,7.70
2023-04-26T14:59:48.247Z,7.70
2023-04-26T15:02:15.364Z,7.60
2023-04-26T15:04:42.602Z,7.60
2023-04-26T15:07:24.787Z,7.70
2023-04-26T15:09:55.523Z,7.70
2023-04-26T15:12:22.689Z,7.60
2023-04-26T15:14:49.799Z,7.60
2023-04-26T15:17:17.686Z,7.60
2023-04-26T15:19:44.597Z,7.70
2023-04-26T15:22:12.061Z,7.80
2023-04-26T15:24:42.303Z,8.00
2023-04-26T15:27:16.287Z,8.00
2023-04-26T15:29:43.276Z,8.10
2023-04-26T15:32:11.660Z,8.10
2023-04-26T15:34:43.650Z,8.20
2023-04-26T15:37:10.949Z,8.20
2023-04-26T15:39:38.337Z,8.20
2023-04-26T15:42:06.269Z,8.20
2023-04-26T15:44:33.579Z,8.30
2023-04-26T15:47:04.127Z,8.30
2023-04-26T15:49:31.286Z,8.40
2023-04-26T15:51:58.459Z,8.50
2023-04-26T15:54:26.646Z,8.60
2023-04-26T15:56:53.812Z,8.60
2023-04-26T15:59:21.340Z,8.60
2023-04-26T16:01:48.322Z,8.60
2023-04-26T16:04:15.768Z,8.60
2023-04-26T16:06:42.986Z,8.60
2023-04-26T16:09:24.777Z,8.60
2023-04-26T16:11:52.978Z,8.70
2023-04-26T16:14:20.024Z,8.70
2023-04-26T16:16:47.045Z,8.70
2023-04-26T16:19:14.478Z,8.80
2023-04-26T16:21:44.262Z,8.80
2023-04-26T16:24:12.588Z,8.80
2023-04-26T16:26:40.011Z,8.80
2023-04-26T16:29:07.026Z,8.80
2023-04-26T16:31:34.827Z,8.70
2023-04-26T16:34:01.976Z,8.80
2023-04-26T16:36:29.131Z,8.80
2023-04-26T16:38:56.813Z,8.70
2023-04-26T16:41:24.248Z,8.70
2023-04-26T16:43:53.039Z,8.60
2023-04-26T16:46:20.576Z,8.40
2023-04-26T16:48:47.611Z,8.40
2023-04-26T16:51:14.892Z,8.40
2023-04-26T16:53:42.534Z,8.40
2023-04-26T16:56:09.847Z,8.30
2023-04-26T16:58:37.023Z,8.30
2023-04-26T17:01:04.953Z,8.30
2023-04-26T17:03:32.212Z,8.20
2023-04-26T17:06:00.252Z,8.20
2023-04-26T17:08:27.513Z,8.10
2023-04-26T17:10:54.682Z,8.10
2023-04-26T17:13:22.094Z,8.10
2023-04-26T17:15:49.807Z,8.00
2023-04-26T17:18:16.846Z,8.00
2023-04-26T17:20:43.924Z,7.90
2023-04-26T17:23:11.840Z,7.90
2023-04-26T17:25:39.122Z,7.90
2023-04-26T17:28:06.239Z,7.80
2023-04-26T17:30:33.318Z,7.80
2023-04-26T17:33:00.557Z,7.80
2023-04-26T17:37:59.762Z,7.70
2023-04-26T17:40:27.029Z,7.60
2023-04-26T17:42:56.050Z,7.60
2023-04-26T17:45:23.718Z,7.50
2023-04-26T17:47:50.741Z,7.50
2023-04-26T17:50:21.268Z,7.50
2023-04-26T17:52:48.538Z,7.40
2023-04-26T17:55:15.875Z,7.40
2023-04-26T17:57:43.212Z,7.40
2023-04-26T18:00:10.873Z,7.30
2023-04-26T18:02:38.566Z,7.20
2023-04-26T18:05:08.610Z,7.20
2023-04-26T18:07:35.769Z,7.20
2023-04-26T18:10:04.069Z,7.10
2023-04-26T18:12:32.185Z,7.10
2023-04-26T18:14:59.646Z,7.10
2023-04-26T18:17:27.096Z,7.10
2023-04-26T18:19:54.243Z,7.10
2023-04-26T18:22:21.453Z,7.00
2023-04-26T18:24:48.668Z,7.00
2023-04-26T18:27:15.727Z,7.00
2023-04-26T18:29:43.091Z,7.00
2023-04-26T18:32:15.761Z,7.10
2023-04-26T18:34:44.328Z,7.10
2023-04-26T18:37:11.407Z,7.20
2023-04-26T18:39:38.445Z,7.10
2023-04-26T18:42:05.677Z,7.10
2023-04-26T18:44:32.823Z,7.10
2023-04-26T18:46:59.825Z,7.00
2023-04-26T18:49:29.718Z,7.00
2023-04-26T18:51:57.486Z,7.10
2023-04-26T18:54:24.575Z,7.10
2023-04-26T18:56:51.504Z,7.10
2023-04-26T18:59:19.191Z,7.00
2023-04-26T19:01:46.397Z,7.00
2023-04-26T19:04:13.505Z,7.00
2023-04-26T19:06:41.734Z,7.00
2023-04-26T19:09:11.993Z,7.00
2023-04-26T19:11:39.121Z,7.00
2023-04-26T19:14:06.312Z,6.90
2023-04-26T19:16:33.411Z,6.90
2023-04-26T19:19:00.989Z,6.80
2023-04-26T19:21:27.912Z,6.80
2023-04-26T19:23:54.908Z,6.80
2023-04-26T19:26:21.821Z,6.80
2023-04-26T19:28:48.732Z,6.80
2023-04-26T19:31:18.305Z,6.80
2023-04-26T19:33:46.204Z,6.70
2023-04-26T19:36:20.306Z,6.70
2023-04-26T19:38:48.558Z,6.70
2023-04-26T19:41:15.484Z,6.70
2023-04-26T19:43:42.453Z,6.70
2023-04-26T19:46:15.651Z,6.70
2023-04-26T19:48:42.910Z,6.70
2023-04-26T19:51:16.241Z,6.70
2023-04-26T19:53:43.740Z,6.60
2023-04-26T19:56:13.677Z,6.60
2023-04-26T19:58:40.705Z,6.60
2023-04-26T20:01:07.961Z,6.50
2023-04-26T20:03:35.203Z,6.50
2023-04-26T20:06:02.227Z,6.40
2023-04-26T20:08:30.954Z,6.40
2023-04-26T20:11:03.669Z,6.40
2023-04-26T20:13:31.327Z,6.30
2023-04-26T20:15:58.766Z,6.30
2023-04-26T20:18:25.719Z,6.30
2023-04-26T20:20:52.762Z,6.30
2023-04-26T20:23:19.864Z,6.30
2023-04-26T20:25:46.820Z,6.30
2023-04-26T20:28:13.784Z,6.30
2023-04-26T20:30:41.547Z,6.30
2023-04-26T20:33:08.762Z,6.30
2023-04-26T20:35:35.826Z,6.30
2023-04-26T20:38:03.191Z,6.30
2023-04-26T20:40:30.191Z,6.30
2023-04-26T20:42:57.120Z,6.30
2023-04-26T20:45:24.085Z,6.30
2023-04-26T20:47:51.502Z,6.30
2023-04-26T20:50:18.607Z,6.30
2023-04-26T20:52:46.916Z,6.20
2023-04-26T20:55:14.161Z,6.20
2023-04-26T20:57:41.951Z,6.20
2023-04-26T21:00:10.677Z,6.20
2023-04-26T21:02:38.998Z,6.20
2023-04-26T21:05:06.672Z,6.10
2023-04-26T21:07:33.846Z,6.10
2023-04-26T21:10:02.128Z,6.10
2023-04-26T21:12:29.120Z,6.10
2023-04-26T21:14:56.267Z,6.10
2023-04-26T21:17:23.320Z,6.10
2023-04-26T21:19:50.362Z,6.10
2023-04-26T21:22:17.376Z,6.10
2023-04-26T21:24:44.342Z,6.00
2023-04-26T21:27:11.494Z,6.00
2023-04-26T21:29:38.756Z,6.00
2023-04-26T21:32:06.257Z,6.00
2023-04-26T21:34:33.277Z,6.00
2023-04-26T21:37:00.299Z,6.00
2023-04-26T21:39:27.314Z,6.00
2023-04-26T21:41:54.360Z,6.00
2023-04-26T21:44:21.649Z,6.00
2023-04-26T21:46:48.668Z,6.00
2023-04-26T21:49:16.466Z,6.00
2023-04-26T21:51:43.635Z,6.00
2023-04-26T21:54:10.963Z,6.10
2023-04-26T21:56:38.149Z,6.00
2023-04-26T21:59:05.194Z,6.00
2023-04-26T22:01:32.417Z,6.00
2023-04-26T22:03:59.508Z,6.00
2023-04-26T22:06:27.370Z,6.00
2023-04-26T22:08:54.557Z,5.90
2023-04-26T22:11:21.890Z,5.90
2023-04-26T22:13:48.921Z,5.90
2023-04-26T22:16:16.170Z,5.90
2023-04-26T22:18:43.212Z,5.90
2023-04-26T22:21:10.277Z,5.80
2023-04-26T22:23:37.315Z,5.80
2023-04-26T22:26:04.397Z,5.80
2023-04-26T22:28:31.431Z,5.80
2023-04-26T22:30:58.626Z,5.80
2023-04-26T22:33:25.640Z,5.80
2023-04-26T22:35:57.745Z,5.80
2023-04-26T22:38:25.550Z,5.80
2023-04-26T22:40:52.716Z,5.80
2023-04-26T22:43:19.750Z,5.80
2023-04-26T22:45:46.858Z,5.80
2023-04-26T22:48:14.054Z,5.80
2023-04-26T22:50:41.611Z,5.80
2023-04-26T22:53:08.544Z,5.80
2023-04-26T22:55:36.811Z,5.70
2023-04-26T22:58:03.987Z,5.80
2023-04-26T23:00:31.009Z,5.80
2023-04-26T23:02:58.162Z,5.80
2023-04-26T23:05:25.190Z,5.70
2023-04-26T23:07:52.408Z,5.70
2023-04-26T23:10:19.560Z,5.70
2023-04-26T23:12:46.562Z,5.70
2023-04-26T23:15:13.521Z,5.70
2023-04-26T23:17:42.052Z,5.60
2023-04-26T23:20:12.470Z,5.60
2023-04-26T23:22:41.079Z,5.60
2023-04-26T23:25:09.131Z,5.50
2023-04-26T23:27:37.055Z,5.50
2023-04-26T23:30:04.765Z,5.40
2023-04-26T23:32:31.838Z,5.40
2023-04-26T23:34:58.899Z,5.30
2023-04-26T23:37:25.848Z,5.30
2023-04-26T23:39:52.832Z,5.20
2023-04-26T23:42:19.779Z,5.20
2023-04-26T23:44:46.920Z,5.20
2023-04-26T23:47:13.860Z,5.10
2023-04-26T23:49:40.792Z,5.10
2023-04-26T23:52:07.786Z,5.10
2023-04-26T23:54:34.825Z,5.00
2023-04-26T23:57:04.128Z,5.00
2023-04-26T23:59:31.182Z,5.00
